createdAt,value
2022-09-28T00:00:20.183Z,30.10
2022-09-28T00:02:27.576Z,33.28
2022-09-28T00:04:36.145Z,28.98
2022-09-28T00:06:43.473Z,32.95
2022-09-28T00:08:51.681Z,32.53
2022-09-28T00:11:01.928Z,32.70
2022-09-28T00:13:10.850Z,30.02
2022-09-28T00:15:17.880Z,33.67
2022-09-28T00:17:24.961Z,35.20
2022-09-28T00:19:31.884Z,31.63
2022-09-28T00:21:40.089Z,35.50
2022-09-28T00:24:00.687Z,33.70
2022-09-28T00:26:08.738Z,31.02
2022-09-28T00:28:17.762Z,31.95
2022-09-28T00:30:24.537Z,24.92
2022-09-28T00:32:31.203Z,28.83
2022-09-28T00:34:42.332Z,29.08
2022-09-28T00:36:50.227Z,29.57
2022-09-28T00:38:58.026Z,26.95
2022-09-28T00:41:06.435Z,30.95
2022-09-28T00:43:25.135Z,30.50
2022-09-28T00:45:32.439Z,28.45
2022-09-28T00:47:46.461Z,32.67
2022-09-28T00:49:58.664Z,33.08
2022-09-28T00:52:09.121Z,35.55
2022-09-28T00:54:18.092Z,34.92
2022-09-28T00:56:27.884Z,31.58
2022-09-28T00:58:39.522Z,33.92
2022-09-28T01:02:53.275Z,32.60
2022-09-28T01:05:02.554Z,37.97
2022-09-28T01:07:11.628Z,35.10
2022-09-28T01:09:19.219Z,32.58
2022-09-28T01:11:26.502Z,35.45
2022-09-28T01:13:36.859Z,31.50
2022-09-28T01:15:49.933Z,37.72
2022-09-28T01:18:06.427Z,30.85
2022-09-28T01:20:46.389Z,35.13
2022-09-28T01:23:27.875Z,30.15
2022-09-28T01:25:48.975Z,33.47
2022-09-28T01:28:02.912Z,30.97
2022-09-28T01:30:11.938Z,29.15
2022-09-28T01:32:26.234Z,31.70
2022-09-28T01:34:38.591Z,31.05
2022-09-28T01:36:51.659Z,33.83
2022-09-28T01:39:03.143Z,31.48
2022-09-28T01:41:11.308Z,32.22
2022-09-28T01:43:23.851Z,34.95
2022-09-28T01:45:33.187Z,29.95
2022-09-28T01:47:43.644Z,31.27
2022-09-28T01:49:53.744Z,28.70
2022-09-28T01:52:06.557Z,31.38
2022-09-28T01:54:17.015Z,31.05
2022-09-28T01:56:31.160Z,31.30
2022-09-28T01:58:43.209Z,32.97
2022-09-28T02:00:56.154Z,28.00
2022-09-28T02:03:09.708Z,32.97
2022-09-28T02:05:26.357Z,27.88
2022-09-28T02:07:40.604Z,29.07
2022-09-28T02:09:51.474Z,26.98
2022-09-28T02:14:41.172Z,28.42
2022-09-28T02:16:50.290Z,27.75
2022-09-28T02:19:02.489Z,29.42
2022-09-28T02:21:17.147Z,25.08
2022-09-28T02:23:27.554Z,25.27
2022-09-28T02:25:41.751Z,28.80
2022-09-28T02:27:56.458Z,25.98
2022-09-28T02:30:05.743Z,28.02
2022-09-28T02:32:13.442Z,26.20
2022-09-28T02:34:20.823Z,27.02
2022-09-28T02:36:29.385Z,26.00
2022-09-28T02:38:37.538Z,25.38
2022-09-28T02:40:49.391Z,23.83
2022-09-28T02:45:21.830Z,25.52
2022-09-28T02:47:42.264Z,24.83
2022-09-28T02:49:55.481Z,25.80
2022-09-28T02:52:26.983Z,27.33
2022-09-28T02:54:59.562Z,23.90
2022-09-28T02:57:21.742Z,22.85
2022-09-28T03:01:56.472Z,23.42
2022-09-28T03:04:15.290Z,20.55
2022-09-28T03:06:29.893Z,22.42
2022-09-28T03:08:41.176Z,23.25
2022-09-28T03:10:57.058Z,22.00
2022-09-28T03:13:05.365Z,21.60
2022-09-28T03:15:16.234Z,21.92
2022-09-28T03:17:26.487Z,20.50
2022-09-28T03:47:11.220Z,23.17
2022-09-28T03:49:18.391Z,24.88
2022-09-28T03:51:25.456Z,26.70
2022-09-28T03:53:33.530Z,24.63
2022-09-28T03:55:41.480Z,27.55
2022-09-28T03:57:55.676Z,24.42
2022-09-28T04:00:02.450Z,27.17
2022-09-28T04:02:11.341Z,24.48
2022-09-28T04:04:18.454Z,22.15
2022-09-28T04:06:25.426Z,28.00
2022-09-28T04:10:50.746Z,26.38
2022-09-28T04:12:59.158Z,24.70
2022-09-28T04:15:06.901Z,29.90
2022-09-28T04:17:13.778Z,24.58
2022-09-28T04:19:21.013Z,26.17
2022-09-28T04:21:47.758Z,28.55
2022-09-28T04:23:54.981Z,26.65
2022-09-28T04:26:03.699Z,28.05
2022-09-28T04:28:28.904Z,25.80
2022-09-28T04:30:36.136Z,24.90
2022-09-28T04:32:43.523Z,27.88
2022-09-28T04:34:50.349Z,26.27
2022-09-28T04:36:57.886Z,28.50
2022-09-28T04:39:04.709Z,24.67
2022-09-28T04:41:14.710Z,25.58
2022-09-28T04:43:21.429Z,25.35
2022-09-28T04:45:28.878Z,24.88
2022-09-28T04:47:42.866Z,28.67
2022-09-28T04:50:10.163Z,23.52
2022-09-28T04:52:38.693Z,27.33
2022-09-28T04:54:46.545Z,26.17
2022-09-28T04:56:55.426Z,25.63
2022-09-28T04:59:02.908Z,24.67
2022-09-28T05:01:12.178Z,24.35
2022-09-28T05:03:31.906Z,22.48
2022-09-28T05:05:51.893Z,23.90
2022-09-28T05:08:11.461Z,25.20
2022-09-28T05:10:20.945Z,22.08
2022-09-28T05:12:29.972Z,23.65
2022-09-28T05:14:36.642Z,21.58
2022-09-28T05:16:45.265Z,20.33
2022-09-28T05:19:13.408Z,21.90
2022-09-28T05:21:21.534Z,23.45
2022-09-28T05:23:28.663Z,24.20
2022-09-28T05:25:37.944Z,22.10
2022-09-28T05:28:02.790Z,21.05
2022-09-28T05:30:23.130Z,21.52
2022-09-28T05:32:50.280Z,22.20
2022-09-28T05:35:17.022Z,20.90
2022-09-28T05:37:25.789Z,22.10
2022-09-28T05:39:32.714Z,21.08
2022-09-28T05:41:39.748Z,19.58
2022-09-28T05:43:48.619Z,19.92
2022-09-28T05:45:55.973Z,20.23
2022-09-28T05:48:03.116Z,22.33
2022-09-28T05:50:12.859Z,20.45
2022-09-28T05:52:20.512Z,19.60
2022-09-28T05:54:27.838Z,23.15
2022-09-28T05:56:34.710Z,18.98
2022-09-28T05:58:44.196Z,21.23
2022-09-28T06:00:58.807Z,20.92
2022-09-28T06:03:09.194Z,18.58
2022-09-28T06:05:17.210Z,21.27
2022-09-28T06:07:24.803Z,18.58
2022-09-28T06:09:31.703Z,18.60
2022-09-28T06:11:41.418Z,18.73
2022-09-28T06:13:58.020Z,19.58
2022-09-28T06:16:11.569Z,19.65
2022-09-28T06:18:18.988Z,18.67
2022-09-28T06:20:45.830Z,19.50
2022-09-28T06:22:55.627Z,18.63
2022-09-28T06:25:02.449Z,16.95
2022-09-28T06:27:09.425Z,20.05
2022-09-28T06:29:20.189Z,21.85
2022-09-28T06:31:31.109Z,21.02
2022-09-28T06:33:39.621Z,19.27
2022-09-28T06:35:46.598Z,19.95
2022-09-28T06:37:53.421Z,18.60
2022-09-28T06:40:00.301Z,18.80
2022-09-28T06:42:07.425Z,18.42
2022-09-28T06:44:26.487Z,20.00
2022-09-28T06:46:47.595Z,20.27
2022-09-28T06:49:18.652Z,18.98
2022-09-28T06:51:45.682Z,22.73
2022-09-28T06:53:59.624Z,20.77
2022-09-28T06:56:19.094Z,18.98
2022-09-28T06:58:27.913Z,19.58
2022-09-28T07:00:39.241Z,22.00
2022-09-28T07:02:48.550Z,21.42
2022-09-28T07:05:16.849Z,20.23
2022-09-28T07:07:37.189Z,21.38
2022-09-28T07:09:59.784Z,22.52
2022-09-28T07:12:18.893Z,21.30
2022-09-28T07:14:47.276Z,19.92
2022-09-28T07:17:12.198Z,22.92
2022-09-28T07:19:22.492Z,24.30
2022-09-28T07:21:30.758Z,21.85
2022-09-28T07:23:52.782Z,21.90
2022-09-28T07:26:09.249Z,23.05
2022-09-28T07:28:31.700Z,20.27
2022-09-28T07:31:00.949Z,21.67
2022-09-28T07:35:35.437Z,21.42
2022-09-28T07:37:43.076Z,22.65
2022-09-28T07:40:06.028Z,21.35
2022-09-28T07:42:16.588Z,21.88
2022-09-28T07:44:23.411Z,22.02
2022-09-28T07:46:33.768Z,20.92
2022-09-28T07:48:46.991Z,22.17
2022-09-28T07:51:15.573Z,20.55
2022-09-28T07:53:29.975Z,24.38
2022-09-28T07:55:55.077Z,20.98
2022-09-28T07:58:14.034Z,21.90
2022-09-28T08:00:34.237Z,25.08
2022-09-28T08:02:42.331Z,23.40
2022-09-28T08:04:49.198Z,24.38
2022-09-28T08:06:58.224Z,23.92
2022-09-28T08:09:05.252Z,21.63
2022-09-28T08:11:24.312Z,22.63
2022-09-28T08:13:47.471Z,24.13
2022-09-28T08:16:09.646Z,22.40
2022-09-28T08:18:28.711Z,23.55
2022-09-28T08:20:52.128Z,24.50
2022-09-28T08:23:07.091Z,25.27
2022-09-28T08:25:15.602Z,24.48
2022-09-28T08:27:22.425Z,25.45
2022-09-28T08:29:31.346Z,26.23
2022-09-28T08:31:58.339Z,26.90
2022-09-28T08:34:14.763Z,27.50
2022-09-28T08:36:34.516Z,28.08
2022-09-28T08:38:42.876Z,27.15
2022-09-28T08:41:18.270Z,26.30
2022-09-28T08:44:11.633Z,27.80
2022-09-28T08:46:36.673Z,32.95
2022-09-28T08:49:23.627Z,33.80
2022-09-28T08:51:48.493Z,33.47
2022-09-28T08:54:23.374Z,34.78
2022-09-28T08:56:40.949Z,32.00
2022-09-28T08:58:51.665Z,28.88
2022-09-28T09:01:00.177Z,30.70
2022-09-28T09:03:10.593Z,30.95
2022-09-28T09:05:21.026Z,27.40
2022-09-28T09:08:04.016Z,27.60
2022-09-28T09:10:21.797Z,26.90
2022-09-28T09:12:42.820Z,30.95
2022-09-28T09:15:29.970Z,29.15
2022-09-28T09:17:49.849Z,30.10
2022-09-28T09:20:23.296Z,28.63
2022-09-28T09:22:44.659Z,27.45
2022-09-28T09:24:54.093Z,27.65
2022-09-28T09:27:10.389Z,31.90
2022-09-28T09:29:35.235Z,29.10
2022-09-28T09:32:09.296Z,28.83
2022-09-28T09:34:37.213Z,29.13
2022-09-28T09:37:09.382Z,28.95
2022-09-28T09:39:44.569Z,27.92
2022-09-28T09:42:25.085Z,28.33
2022-09-28T09:45:13.532Z,29.23
2022-09-28T09:47:33.053Z,31.52
2022-09-28T09:49:49.962Z,28.40
2022-09-28T09:52:02.775Z,27.65
2022-09-28T09:54:19.335Z,28.48
2022-09-28T09:56:35.577Z,29.35
2022-09-28T09:58:59.546Z,33.63
2022-09-28T10:01:17.711Z,30.95
2022-09-28T10:03:40.076Z,31.45
2022-09-28T10:05:59.491Z,26.83
2022-09-28T10:08:16.103Z,29.40
2022-09-28T10:10:27.115Z,28.70
2022-09-28T10:12:40.237Z,29.77
2022-09-28T10:14:49.211Z,28.92
2022-09-28T10:16:58.621Z,27.42
2022-09-28T10:19:31.792Z,31.05
2022-09-28T10:21:53.200Z,28.83
2022-09-28T10:24:05.041Z,32.53
2022-09-28T10:26:16.166Z,31.27
2022-09-28T10:28:30.207Z,27.58
2022-09-28T10:30:43.118Z,29.95
2022-09-28T10:32:51.533Z,28.75
2022-09-28T10:35:17.199Z,30.40
2022-09-28T10:37:25.458Z,29.83
2022-09-28T10:39:54.247Z,33.40
2022-09-28T10:42:04.599Z,32.65
2022-09-28T10:44:22.073Z,31.73
2022-09-28T10:47:00.025Z,31.67
2022-09-28T10:49:15.552Z,31.65
2022-09-28T10:51:42.447Z,32.05
2022-09-28T10:54:03.503Z,30.58
2022-09-28T10:56:26.515Z,29.83
2022-09-28T10:58:43.000Z,30.73
2022-09-28T11:01:02.421Z,29.92
2022-09-28T11:03:21.894Z,33.03
2022-09-28T11:05:31.022Z,30.17
2022-09-28T11:07:49.014Z,31.55
2022-09-28T11:10:01.172Z,28.45
2022-09-28T11:12:17.406Z,29.13
2022-09-28T11:14:31.031Z,32.13
2022-09-28T11:16:39.656Z,30.13
2022-09-28T11:18:48.471Z,32.63
2022-09-28T11:20:55.860Z,30.88
2022-09-28T11:23:17.781Z,28.95
2022-09-28T11:25:27.216Z,32.00
2022-09-28T11:27:34.141Z,29.42
2022-09-28T11:29:44.145Z,31.83
2022-09-28T11:32:04.734Z,33.67
2022-09-28T11:34:41.515Z,30.33
2022-09-28T11:37:19.463Z,32.42
2022-09-28T11:39:34.996Z,31.25
2022-09-28T11:41:59.077Z,31.35
2022-09-28T11:44:33.664Z,35.65
2022-09-28T11:46:59.307Z,32.47
2022-09-28T11:49:11.915Z,29.75
2022-09-28T11:51:27.547Z,31.67
2022-09-28T11:53:39.181Z,33.83
2022-09-28T11:58:00.208Z,34.55
2022-09-28T12:00:11.119Z,31.13
2022-09-28T12:02:30.414Z,32.17
2022-09-28T12:04:50.008Z,33.53
2022-09-28T12:07:07.276Z,33.65
2022-09-28T12:09:21.935Z,36.08
2022-09-28T12:11:44.474Z,35.60
2022-09-28T12:13:57.390Z,33.17
2022-09-28T12:16:27.615Z,35.00
2022-09-28T12:18:44.836Z,34.03
2022-09-28T12:20:55.492Z,36.95
2022-09-28T12:23:14.244Z,36.78
2022-09-28T12:25:22.706Z,36.22
2022-09-28T12:27:39.667Z,37.53
2022-09-28T12:29:50.180Z,32.90
2022-09-28T12:32:04.886Z,31.77
2022-09-28T12:34:13.706Z,37.45
2022-09-28T12:36:31.436Z,35.95
2022-09-28T12:39:18.176Z,34.72
2022-09-28T12:41:37.462Z,36.25
2022-09-28T12:44:14.243Z,36.35
2022-09-28T12:46:40.414Z,36.15
2022-09-28T12:50:01.812Z,38.03
2022-09-28T12:51:51.614Z,37.22
2022-09-28T12:54:17.015Z,36.63
2022-09-28T12:56:32.544Z,37.10
2022-09-28T12:59:00.925Z,37.25
2022-09-28T13:01:20.085Z,40.03
2022-09-28T13:03:59.890Z,39.60
2022-09-28T13:06:25.347Z,40.08
2022-09-28T13:08:43.070Z,39.13
2022-09-28T13:11:02.170Z,39.35
2022-09-28T13:13:30.098Z,37.35
2022-09-28T13:15:51.635Z,35.25
2022-09-28T13:18:04.892Z,34.72
2022-09-28T13:20:31.478Z,36.35
2022-09-28T13:22:50.641Z,33.67
2022-09-28T13:25:00.129Z,35.83
2022-09-28T13:27:13.400Z,34.88
2022-09-28T13:29:22.429Z,37.17
2022-09-28T13:31:34.893Z,34.10
2022-09-28T13:33:47.385Z,37.42
2022-09-28T13:35:54.570Z,35.63
2022-09-28T13:38:50.603Z,34.55
2022-09-28T13:41:20.716Z,36.83
2022-09-28T13:43:35.064Z,34.00
2022-09-28T13:45:59.076Z,36.38
2022-09-28T13:48:16.314Z,38.00
2022-09-28T13:50:33.165Z,33.63
2022-09-28T13:52:48.487Z,37.35
2022-09-28T13:55:15.030Z,34.88
2022-09-28T13:57:27.376Z,36.70
2022-09-28T13:59:38.038Z,36.67
2022-09-28T14:01:48.247Z,33.90
2022-09-28T14:04:12.634Z,34.47
2022-09-28T14:06:28.666Z,41.15
2022-09-28T14:08:39.880Z,38.78
2022-09-28T14:10:54.652Z,40.72
2022-09-28T14:13:04.111Z,40.33
2022-09-28T14:15:46.146Z,37.58
2022-09-28T14:18:15.385Z,36.95
2022-09-28T14:20:26.306Z,38.42
2022-09-28T14:22:38.863Z,36.88
2022-09-28T14:25:03.428Z,39.92
2022-09-28T14:27:35.362Z,36.65
2022-09-28T14:31:50.915Z,36.53
2022-09-28T14:34:03.673Z,35.72
2022-09-28T14:36:43.973Z,36.05
2022-09-28T14:39:09.536Z,35.75
2022-09-28T14:41:35.252Z,37.38
2022-09-28T14:44:10.930Z,35.92
2022-09-28T14:46:52.592Z,39.65
2022-09-28T14:49:02.641Z,33.03
2022-09-28T14:51:41.463Z,37.03
2022-09-28T14:53:49.977Z,34.08
2022-09-28T14:56:01.256Z,37.25
2022-09-28T14:58:10.332Z,38.83
2022-09-28T15:00:23.862Z,40.20
2022-09-28T15:02:35.701Z,35.45
2022-09-28T15:04:46.805Z,39.80
2022-09-28T15:06:55.086Z,37.70
2022-09-28T15:09:02.111Z,36.95
2022-09-28T15:11:10.624Z,39.45
2022-09-28T15:13:27.893Z,36.83
2022-09-28T15:15:37.480Z,35.83
2022-09-28T15:17:52.855Z,39.55
2022-09-28T15:20:24.823Z,38.67
2022-09-28T15:22:32.260Z,34.80
2022-09-28T15:24:41.235Z,37.17
2022-09-28T15:26:51.838Z,38.20
2022-09-28T15:28:58.867Z,35.78
2022-09-28T15:31:07.690Z,39.72
2022-09-28T15:33:48.199Z,40.30
2022-09-28T15:36:02.499Z,37.65
2022-09-28T15:38:14.237Z,38.78
2022-09-28T15:40:24.561Z,37.90
2022-09-28T15:42:37.717Z,38.22
2022-09-28T15:44:48.718Z,36.33
2022-09-28T15:47:09.486Z,36.70
2022-09-28T15:49:29.108Z,35.92
2022-09-28T15:51:48.639Z,37.97
2022-09-28T15:54:00.835Z,37.38
2022-09-28T15:56:11.289Z,36.08
2022-09-28T15:58:21.439Z,38.88
2022-09-28T16:00:30.514Z,39.45
2022-09-28T16:02:38.520Z,36.97
2022-09-28T16:04:54.051Z,36.40
2022-09-28T16:07:21.200Z,42.40
2022-09-28T16:09:56.334Z,39.72
2022-09-28T16:12:12.016Z,40.40
2022-09-28T16:14:23.800Z,35.25
2022-09-28T16:16:33.142Z,37.03
2022-09-28T16:18:43.539Z,38.20
2022-09-28T16:20:54.152Z,38.05
2022-09-28T16:23:06.656Z,38.65
2022-09-28T16:25:21.622Z,35.83
2022-09-28T16:27:32.080Z,35.15
2022-09-28T16:29:41.770Z,35.45
2022-09-28T16:31:53.671Z,36.72
2022-09-28T16:34:02.841Z,39.80
2022-09-28T16:36:16.065Z,34.40
2022-09-28T16:38:23.765Z,34.30
2022-09-28T16:40:31.602Z,33.45
2022-09-28T16:42:39.921Z,34.63
2022-09-28T16:44:47.145Z,34.50
2022-09-28T16:46:58.066Z,33.05
2022-09-28T16:49:06.796Z,35.03
2022-09-28T16:51:15.552Z,35.72
2022-09-28T16:53:39.218Z,34.50
2022-09-28T16:55:46.491Z,32.80
2022-09-28T16:57:54.301Z,35.35
2022-09-28T17:00:01.189Z,34.40
2022-09-28T17:04:47.795Z,37.22
2022-09-28T17:06:59.306Z,36.85
2022-09-28T17:09:08.053Z,35.80
2022-09-28T17:11:23.694Z,37.40
2022-09-28T17:13:34.388Z,37.13
2022-09-28T17:15:41.384Z,35.13
2022-09-28T17:17:48.904Z,35.28
2022-09-28T17:19:55.838Z,37.38
2022-09-28T17:22:04.549Z,32.25
2022-09-28T17:24:12.284Z,32.97
2022-09-28T17:26:23.419Z,35.95
2022-09-28T17:28:33.110Z,37.20
2022-09-28T17:30:40.043Z,36.28
2022-09-28T17:32:48.246Z,32.17
2022-09-28T17:35:06.426Z,33.83
2022-09-28T17:37:17.376Z,31.70
2022-09-28T17:39:26.065Z,30.98
2022-09-28T17:41:33.306Z,33.00
2022-09-28T17:43:42.325Z,32.72
2022-09-28T17:45:50.578Z,33.15
2022-09-28T17:47:58.378Z,33.38
2022-09-28T17:50:05.301Z,33.97
2022-09-28T17:52:14.737Z,30.27
2022-09-28T17:54:23.804Z,37.20
2022-09-28T17:56:32.627Z,33.70
2022-09-28T17:58:39.865Z,33.55
2022-09-28T18:00:46.995Z,29.83
2022-09-28T18:02:55.443Z,31.55
2022-09-28T18:05:02.608Z,31.25
2022-09-28T18:07:09.717Z,33.13
2022-09-28T18:09:25.705Z,33.90
2022-09-28T18:11:33.044Z,31.58
2022-09-28T18:13:40.785Z,31.48
2022-09-28T18:15:47.998Z,33.00
2022-09-28T18:17:54.792Z,33.35
2022-09-28T18:20:01.921Z,30.85
2022-09-28T18:22:08.849Z,32.33
2022-09-28T18:24:17.684Z,32.78
2022-09-28T18:26:24.548Z,33.15
2022-09-28T18:28:31.723Z,32.92
2022-09-28T18:30:41.444Z,31.40
2022-09-28T18:32:48.800Z,29.63
2022-09-28T18:34:55.470Z,29.33
2022-09-28T18:37:02.497Z,30.92
2022-09-28T18:39:09.483Z,29.50
2022-09-28T18:41:18.808Z,27.25
2022-09-28T18:43:25.526Z,29.20
2022-09-28T18:45:32.248Z,25.25
2022-09-28T18:47:39.174Z,27.20
2022-09-28T18:49:46.868Z,29.10
2022-09-28T18:51:54.772Z,25.77
2022-09-28T18:54:11.675Z,26.02
2022-09-28T18:56:22.749Z,27.88
2022-09-28T18:58:30.595Z,25.55
2022-09-28T19:00:38.042Z,26.05
2022-09-28T19:02:45.008Z,27.00
2022-09-28T19:04:52.552Z,26.10
2022-09-28T19:07:04.650Z,25.13
2022-09-28T19:09:12.023Z,25.45
2022-09-28T19:11:20.598Z,25.20
2022-09-28T19:13:31.363Z,28.38
2022-09-28T19:15:41.341Z,26.70
2022-09-28T19:17:49.113Z,25.35
2022-09-28T19:19:56.184Z,27.27
2022-09-28T19:22:03.361Z,25.27
2022-09-28T19:24:10.548Z,27.60
2022-09-28T19:26:21.473Z,27.83
2022-09-28T19:28:28.852Z,30.25
2022-09-28T19:30:36.000Z,30.83
2022-09-28T19:32:43.882Z,29.38
2022-09-28T19:34:52.958Z,26.92
2022-09-28T19:36:59.883Z,27.38
2022-09-28T19:39:08.909Z,29.58
2022-09-28T19:41:39.422Z,26.65
2022-09-28T19:43:51.994Z,27.40
2022-09-28T19:45:59.196Z,28.77
2022-09-28T19:48:06.563Z,28.50
2022-09-28T19:50:17.380Z,28.08
2022-09-28T19:52:25.541Z,27.40
2022-09-28T19:54:42.495Z,30.35
2022-09-28T19:56:49.420Z,31.10
2022-09-28T19:58:58.035Z,27.25
2022-09-28T20:01:08.339Z,30.42
2022-09-28T20:03:15.214Z,27.30
2022-09-28T20:05:22.039Z,34.00
2022-09-28T20:07:29.066Z,31.33
2022-09-28T20:09:36.144Z,30.58
2022-09-28T20:11:43.173Z,29.67
2022-09-28T20:13:50.508Z,31.90
2022-09-28T20:15:59.268Z,28.65
2022-09-28T20:18:06.919Z,28.15
2022-09-28T20:20:14.160Z,27.80
2022-09-28T20:22:21.078Z,29.30
2022-09-28T20:24:30.102Z,29.80
2022-09-28T20:26:38.820Z,28.08
2022-09-28T20:28:46.930Z,30.92
2022-09-28T20:30:56.188Z,29.30
2022-09-28T20:33:04.973Z,28.40
2022-09-28T20:35:12.463Z,27.45
2022-09-28T20:37:19.797Z,27.88
2022-09-28T20:39:26.671Z,28.30
2022-09-28T20:41:37.642Z,26.58
2022-09-28T20:43:46.001Z,28.80
2022-09-28T20:45:54.354Z,25.83
2022-09-28T20:48:06.312Z,28.85
2022-09-28T20:50:15.125Z,28.85
2022-09-28T20:52:23.791Z,28.50
2022-09-28T20:54:30.817Z,29.10
2022-09-28T20:56:39.826Z,27.45
2022-09-28T20:58:46.769Z,29.92
2022-09-28T21:00:54.104Z,28.02
2022-09-28T21:03:01.042Z,30.33
2022-09-28T21:05:08.673Z,27.33
2022-09-28T21:07:17.184Z,28.85
2022-09-28T21:09:24.264Z,28.33
2022-09-28T21:11:32.622Z,28.13
2022-09-28T21:13:43.803Z,28.58
2022-09-28T21:15:51.165Z,28.23
2022-09-28T21:17:58.621Z,30.60
2022-09-28T21:20:06.836Z,30.90
2022-09-28T21:22:13.703Z,28.58
2022-09-28T21:24:22.471Z,30.27
2022-09-28T21:26:33.185Z,33.55
2022-09-28T21:28:40.778Z,29.90
2022-09-28T21:30:49.247Z,32.72
2022-09-28T21:32:56.266Z,30.98
2022-09-28T21:35:03.096Z,30.73
2022-09-28T21:37:10.118Z,28.15
2022-09-28T21:39:17.349Z,26.73
2022-09-28T21:41:26.031Z,25.77
2022-09-28T21:43:34.430Z,25.10
2022-09-28T21:45:42.331Z,23.17
2022-09-28T21:47:54.063Z,22.20
2022-09-28T21:50:00.784Z,21.50
2022-09-28T21:52:07.764Z,22.98
2022-09-28T21:54:16.013Z,19.88
2022-09-28T21:56:25.657Z,19.35
2022-09-28T21:58:34.580Z,22.67
2022-09-28T22:00:41.559Z,21.85
2022-09-28T22:02:48.996Z,20.85
2022-09-28T22:04:55.931Z,20.05
2022-09-28T22:07:03.108Z,20.42
2022-09-28T22:09:09.874Z,21.27
2022-09-28T22:11:17.875Z,19.38
2022-09-28T22:13:26.490Z,16.90
2022-09-28T22:15:34.456Z,19.50
2022-09-28T22:17:41.262Z,16.63
2022-09-28T22:19:48.347Z,16.83
2022-09-28T22:21:55.267Z,17.13
2022-09-28T22:24:03.575Z,17.52
2022-09-28T22:26:12.088Z,16.13
2022-09-28T22:28:19.220Z,18.92
2022-09-28T22:30:27.896Z,16.88
2022-09-28T22:32:34.963Z,17.52
2022-09-28T22:34:41.890Z,15.82
2022-09-28T22:36:48.970Z,18.67
2022-09-28T22:38:56.919Z,17.23
2022-09-28T22:41:04.774Z,18.20
2022-09-28T22:43:12.049Z,16.75
2022-09-28T22:45:19.128Z,17.33
2022-09-28T22:47:28.191Z,15.27
2022-09-28T22:49:35.233Z,15.85
2022-09-28T22:51:42.835Z,16.05
2022-09-28T22:53:49.962Z,14.98
2022-09-28T22:55:57.648Z,14.60
2022-09-28T22:58:04.942Z,13.77
2022-09-28T23:00:12.995Z,14.18
2022-09-28T23:02:20.575Z,13.75
2022-09-28T23:04:29.346Z,16.20
2022-09-28T23:06:36.271Z,14.23
2022-09-28T23:08:43.719Z,14.27
2022-09-28T23:10:50.581Z,14.80
2022-09-28T23:12:57.815Z,13.80
2022-09-28T23:15:04.637Z,15.85
2022-09-28T23:17:11.563Z,11.98
2022-09-28T23:19:18.522Z,11.27
2022-09-28T23:21:28.485Z,13.93
2022-09-28T23:23:35.822Z,12.60
2022-09-28T23:25:42.765Z,11.52
2022-09-28T23:27:50.801Z,10.43
2022-09-28T23:29:57.878Z,12.02
2022-09-28T23:32:07.979Z,10.32
2022-09-28T23:34:15.071Z,10.73
2022-09-28T23:36:21.933Z,9.90
2022-09-28T23:38:30.455Z,9.32
2022-09-28T23:40:37.379Z,10.60
2022-09-28T23:42:44.450Z,8.95
2022-09-28T23:44:51.530Z,20.42
2022-09-28T23:46:59.034Z,9.13
2022-09-28T23:49:05.943Z,10.00
2022-09-28T23:51:13.022Z,8.77
2022-09-28T23:53:19.847Z,10.25
2022-09-28T23:55:28.768Z,8.60
2022-09-28T23:57:35.542Z,12.00
2022-09-28T23:59:42.889Z,10.07
